Time;durP1;ratioP1;P1;durP2;ratioP2;P2;SDS_P1;SDS_P2;PMS_P1;PMS_P2;Temp;Humidity;BMP_temperature;BMP_pressure;BME280_temperature;BME280_humidity;BME280_pressure;Samples;Min_cycle;Max_cycle;Signal;HPM_P1;HPM_P2
2022/06/19 00:01:22;;;;;;;;;;;;;;;;;;5073381;28;19931;-86
2022/06/19 00:04:09;;;;;;;;;;;;;;;;;;5080062;28;20248;-87
2022/06/19 00:06:58;;;;;;;;;;;;;;;;;;5080913;28;20287;-85
2022/06/19 00:09:45;;;;;;;;;;;;;;;;;;5078558;28;19919;-86
2022/06/19 00:12:31;;;;;;;;;;;;;;;;;;5074414;28;19915;-86
2022/06/19 00:15:18;;;;;;;;;;;;;;;;;;5089289;28;19919;-86
2022/06/19 00:18:04;;;;;;;;;;;;;;;;;;5078382;28;19908;-87
2022/06/19 00:20:51;;;;;;;;;;;;;;;;;;5088439;28;19912;-87
2022/06/19 00:23:37;;;;;;;;;;;;;;;;;;5087692;28;20245;-85
2022/06/19 00:26:24;;;;;;;;;;;;;;;;;;5084745;28;20360;-86
2022/06/19 00:29:10;;;;;;;;;;;;;;;;;;5082154;28;19916;-86
2022/06/19 00:31:57;;;;;;;;;;;;;;;;;;5083359;28;20458;-86
2022/06/19 00:34:43;;;;;;;;;;;;;;;;;;5082645;28;19912;-87
2022/06/19 00:37:30;;;;;;;;;;;;;;;;;;5085384;28;19920;-86
2022/06/19 00:40:16;;;;;;;;;;;;;;;;;;5083728;28;19909;-86
2022/06/19 00:43:03;;;;;;;;;;;;;;;;;;5083065;28;19912;-86
2022/06/19 00:45:52;;;;;;;;;;;;;;;;;;5076601;28;19912;-86
2022/06/19 00:48:40;;;;;;;;;;;;;;;;;;5085828;28;19908;-85
2022/06/19 00:51:26;;;;;;;;;;;;;;;;;;5088005;28;19916;-86
2022/06/19 00:54:13;;;;;;;;;;;;;;;;;;5079229;28;19920;-85
2022/06/19 00:56:59;;;;;;;;;;;;;;;;;;5083085;28;20284;-85
2022/06/19 00:59:46;;;;;;;;;;;;;;;;;;5086256;28;20287;-86
2022/06/19 01:02:32;;;;;;;;;;;;;;;;;;5084626;28;19923;-88
2022/06/19 01:05:19;;;;;;;;;;;;;;;;;;5086738;28;19912;-87
2022/06/19 01:08:05;;;;;;;;;;;;;;;;;;5090743;28;19918;-87
2022/06/19 01:10:52;;;;;;;;;;;;;;;;;;5081287;28;19930;-87
2022/06/19 01:13:38;;;;;;;;;;;;;;;;;;5090273;28;19912;-87
2022/06/19 01:16:25;;;;;;;;;;;;;;;;;;5073132;28;19915;-87
2022/06/19 01:19:12;;;;;;;;;;;;;;;;;;5085827;28;19971;-87
2022/06/19 01:21:58;;;;;;;;;;;;;;;;;;5092184;28;20364;-88
2022/06/19 01:24:45;;;;;;;;;;;;;;;;;;5087873;28;20423;-86
2022/06/19 01:30:36;;;;;;;;;;;;;;;;;;5088253;28;19916;-86
2022/06/19 01:33:23;;;;;;;;;;;;;;;;;;5075479;28;19978;-86
2022/06/19 01:36:10;;;;;;;;;;;;;;;;;;5083972;28;20335;-87
2022/06/19 01:38:56;;;;;;;;;;;;;;;;;;5072635;28;20280;-85
2022/06/19 01:41:43;;;;;;;;;;;;;;;;;;5085846;28;19928;-85
2022/06/19 01:44:29;;;;;;;;;;;;;;;;;;5089137;28;20295;-86
2022/06/19 01:47:16;;;;;;;;;;;;;;;;;;5090456;28;19908;-86
2022/06/19 01:50:02;;;;;;;;;;;;;;;;;;5088162;28;19912;-88
2022/06/19 01:52:49;;;;;;;;;;;;;;;;;;5088609;28;20273;-89
2022/06/19 01:55:35;;;;;;;;;;;;;;;;;;5072542;28;19915;-89
2022/06/19 01:58:21;;;;;;;;;;;;;;;;;;5088022;28;19912;-87
2022/06/19 02:01:08;;;;;;;;;;;;;;;;;;5078070;28;20287;-87
2022/06/19 02:03:57;;;;;;;;;;;;;;;;;;5075850;28;19908;-86
2022/06/19 02:06:44;;;;;;;;;;;;;;;;;;5088428;28;20253;-87
2022/06/19 02:09:30;;;;;;;;;;;;;;;;;;5090576;28;19912;-86
2022/06/19 02:12:17;;;;;;;;;;;;;;;;;;5088962;28;19920;-86
2022/06/19 02:15:03;;;;;;;;;;;;;;;;;;5078557;28;19908;-85
2022/06/19 02:17:50;;;;;;;;;;;;;;;;;;5084972;28;19909;-86
2022/06/19 02:20:36;;;;;;;;;;;;;;;;;;5083634;28;21107;-85
2022/06/19 02:23:23;;;;;;;;;;;;;;;;;;5091832;28;19908;-87
2022/06/19 02:26:09;;;;;;;;;;;;;;;;;;5089052;28;19919;-86
2022/06/19 02:28:56;;;;;;;;;;;;;;;;;;5080370;28;19915;-86
2022/06/19 02:31:42;;;;;;;;;;;;;;;;;;5068435;28;19943;-86
2022/06/19 02:34:29;;;;;;;;;;;;;;;;;;5086158;28;19916;-87
2022/06/19 02:37:17;;;;;;;;;;;;;;;;;;5090310;28;20481;-87
2022/06/19 02:40:05;;;;;;;;;;;;;;;;;;5079305;28;20348;-87
2022/06/19 02:42:51;;;;;;;;;;;;;;;;;;5088657;28;19919;-88
2022/06/19 02:45:39;;;;;;;;;;;;;;;;;;5081901;28;19923;-87
2022/06/19 02:48:26;;;;;;;;;;;;;;;;;;5087852;28;19908;-85
2022/06/19 02:51:12;;;;;;;;;;;;;;;;;;5075935;28;19924;-86
2022/06/19 02:53:59;;;;;;;;;;;;;;;;;;5081076;28;19920;-85
2022/06/19 02:56:45;;;;;;;;;;;;;;;;;;5077497;28;20483;-84
2022/06/19 02:59:32;;;;;;;;;;;;;;;;;;5089227;28;19923;-84
2022/06/19 03:02:18;;;;;;;;;;;;;;;;;;5083734;28;19912;-84
2022/06/19 03:05:05;;;;;;;;;;;;;;;;;;5088288;28;19908;-84
2022/06/19 03:07:51;;;;;;;;;;;;;;;;;;5078208;28;19912;-84
2022/06/19 03:10:38;;;;;;;;;;;;;;;;;;5085616;28;20228;-85
2022/06/19 03:13:25;;;;;;;;;;;;;;;;;;5081748;28;19912;-83
2022/06/19 03:16:12;;;;;;;;;;;;;;;;;;5080141;28;19919;-84
2022/06/19 03:18:59;;;;;;;;;;;;;;;;;;5085235;28;19912;-83
2022/06/19 03:21:45;;;;;;;;;;;;;;;;;;5089342;28;19908;-84
2022/06/19 03:24:32;;;;;;;;;;;;;;;;;;5090359;28;19919;-85
2022/06/19 03:27:18;;;;;;;;;;;;;;;;;;5090133;28;19915;-84
2022/06/19 03:30:05;;;;;;;;;;;;;;;;;;5088362;28;19908;-86
2022/06/19 03:32:51;;;;;;;;;;;;;;;;;;5087996;28;19920;-84
2022/06/19 03:35:38;;;;;;;;;;;;;;;;;;5094411;28;19913;-84
2022/06/19 03:38:24;;;;;;;;;;;;;;;;;;5095324;28;19912;-83
2022/06/19 03:41:10;;;;;;;;;;;;;;;;;;5091550;28;20260;-84
2022/06/19 03:43:57;;;;;;;;;;;;;;;;;;5087930;28;19912;-86
2022/06/19 03:46:43;;;;;;;;;;;;;;;;;;5083108;28;19908;-85
2022/06/19 03:49:30;;;;;;;;;;;;;;;;;;5080334;28;19919;-85
2022/06/19 03:52:16;;;;;;;;;;;;;;;;;;5076211;28;19927;-85
2022/06/19 03:55:03;;;;;;;;;;;;;;;;;;5083229;28;19920;-85
2022/06/19 03:57:49;;;;;;;;;;;;;;;;;;5088238;28;19923;-85
2022/06/19 04:00:36;;;;;;;;;;;;;;;;;;5080460;28;20318;-85
2022/06/19 04:03:22;;;;;;;;;;;;;;;;;;5086946;28;19912;-85
2022/06/19 04:06:09;;;;;;;;;;;;;;;;;;5073197;28;19930;-84
2022/06/19 04:08:55;;;;;;;;;;;;;;;;;;5076900;28;20631;-84
2022/06/19 04:11:42;;;;;;;;;;;;;;;;;;5085181;28;19920;-85
2022/06/19 04:14:28;;;;;;;;;;;;;;;;;;5089616;28;19908;-84
2022/06/19 04:17:15;;;;;;;;;;;;;;;;;;5074794;28;19917;-84
2022/06/19 04:20:02;;;;;;;;;;;;;;;;;;5073744;28;19916;-86
2022/06/19 04:22:49;;;;;;;;;;;;;;;;;;5072968;28;19912;-85
2022/06/19 04:25:36;;;;;;;;;;;;;;;;;;5084504;28;19919;-85
2022/06/19 04:28:24;;;;;;;;;;;;;;;;;;5081318;28;19923;-85
2022/06/19 04:31:10;;;;;;;;;;;;;;;;;;5067668;28;19923;-85
2022/06/19 04:33:57;;;;;;;;;;;;;;;;;;5063879;28;19912;-86
2022/06/19 04:36:43;;;;;;;;;;;;;;;;;;5082161;28;19915;-86
2022/06/19 04:39:30;;;;;;;;;;;;;;;;;;5087141;28;19915;-85
2022/06/19 04:42:16;;;;;;;;;;;;;;;;;;5069461;28;19913;-84
2022/06/19 04:45:02;;;;;;;;;;;;;;;;;;5073468;28;20439;-86
2022/06/19 04:47:49;;;;;;;;;;;;;;;;;;5085543;28;19909;-86
2022/06/19 04:50:35;;;;;;;;;;;;;;;;;;5083197;28;19912;-85
2022/06/19 04:53:22;;;;;;;;;;;;;;;;;;5086484;28;19938;-86
2022/06/19 04:56:08;;;;;;;;;;;;;;;;;;5087363;28;20273;-84
2022/06/19 04:58:55;;;;;;;;;;;;;;;;;;5091688;28;19909;-84
2022/06/19 05:01:41;;;;;;;;;;;;;;;;;;5092243;28;19951;-84
2022/06/19 05:04:28;;;;;;;;;;;;;;;;;;5072708;28;19912;-84
2022/06/19 05:07:14;;;;;;;;;;;;;;;;;;5068661;28;19908;-84
2022/06/19 05:10:01;;;;;;;;;;;;;;;;;;5075979;28;19908;-84
2022/06/19 05:12:47;;;;;;;;;;;;;;;;;;5090090;28;19924;-84
2022/06/19 05:15:34;;;;;;;;;;;;;;;;;;5091966;28;19934;-84
2022/06/19 05:18:20;;;;;;;;;;;;;;;;;;5086330;28;19912;-85
2022/06/19 05:21:07;;;;;;;;;;;;;;;;;;5068784;28;19908;-85
2022/06/19 05:23:53;;;;;;;;;;;;;;;;;;5086235;28;19923;-85
2022/06/19 05:26:40;;;;;;;;;;;;;;;;;;5074399;28;19908;-85
2022/06/19 05:29:26;;;;;;;;;;;;;;;;;;5093273;28;19922;-84
2022/06/19 05:32:12;;;;;;;;;;;;;;;;;;5077951;28;19921;-83
2022/06/19 05:34:59;;;;;;;;;;;;;;;;;;5082957;28;20296;-85
2022/06/19 05:37:46;;;;;;;;;;;;;;;;;;5088174;28;20352;-86
2022/06/19 05:40:32;;;;;;;;;;;;;;;;;;5074864;28;19939;-86
2022/06/19 05:43:19;;;;;;;;;;;;;;;;;;5077153;28;19908;-86
2022/06/19 05:46:05;;;;;;;;;;;;;;;;;;5091410;28;19909;-86
2022/06/19 05:48:51;;;;;;;;;;;;;;;;;;5078219;28;19912;-86
2022/06/19 05:51:38;;;;;;;;;;;;;;;;;;5086918;28;19923;-84
2022/06/19 05:54:24;;;;;;;;;;;;;;;;;;5086000;28;19920;-86
2022/06/19 05:57:11;;;;;;;;;;;;;;;;;;5088801;28;19915;-86
2022/06/19 05:59:57;;;;;;;;;;;;;;;;;;5065264;28;19919;-87
2022/06/19 06:02:44;;;;;;;;;;;;;;;;;;5083790;28;19915;-86
2022/06/19 06:05:30;;;;;;;;;;;;;;;;;;5086388;28;19915;-86
2022/06/19 06:08:17;;;;;;;;;;;;;;;;;;5090155;28;19908;-86
2022/06/19 06:11:03;;;;;;;;;;;;;;;;;;5089242;28;19924;-86
2022/06/19 06:13:50;;;;;;;;;;;;;;;;;;5073868;28;19912;-86
2022/06/19 06:16:36;;;;;;;;;;;;;;;;;;5090296;28;20271;-87
2022/06/19 06:19:23;;;;;;;;;;;;;;;;;;5071547;28;19908;-87
2022/06/19 06:22:09;;;;;;;;;;;;;;;;;;5087159;28;19912;-86
2022/06/19 06:24:56;;;;;;;;;;;;;;;;;;5081343;28;19913;-84
2022/06/19 06:27:42;;;;;;;;;;;;;;;;;;5071484;28;20431;-86
2022/06/19 06:30:29;;;;;;;;;;;;;;;;;;5082877;28;19919;-85
2022/06/19 06:33:15;;;;;;;;;;;;;;;;;;5075508;28;19917;-85
2022/06/19 06:36:01;;;;;;;;;;;;;;;;;;5077288;28;20193;-85
2022/06/19 06:38:48;;;;;;;;;;;;;;;;;;5075415;28;19908;-86
2022/06/19 06:41:34;;;;;;;;;;;;;;;;;;5078499;28;20364;-85
2022/06/19 06:44:21;;;;;;;;;;;;;;;;;;5082030;28;19912;-87
2022/06/19 06:47:07;;;;;;;;;;;;;;;;;;5076673;28;20563;-87
2022/06/19 06:49:54;;;;;;;;;;;;;;;;;;5077045;28;19951;-87
2022/06/19 06:52:40;;;;;;;;;;;;;;;;;;5072140;28;19925;-86
2022/06/19 06:55:27;;;;;;;;;;;;;;;;;;5084934;28;20366;-86
2022/06/19 06:58:13;;;;;;;;;;;;;;;;;;5085824;28;19919;-86
2022/06/19 07:01:00;;;;;;;;;;;;;;;;;;5084605;28;20364;-85
2022/06/19 07:03:46;;;;;;;;;;;;;;;;;;5082397;28;19915;-85
2022/06/19 07:06:33;;;;;;;;;;;;;;;;;;5085552;28;19919;-86
2022/06/19 07:09:19;;;;;;;;;;;;;;;;;;5085122;28;19915;-87
2022/06/19 07:12:06;;;;;;;;;;;;;;;;;;5085294;28;20296;-88
2022/06/19 07:14:52;;;;;;;;;;;;;;;;;;5086366;28;20356;-88
2022/06/19 07:17:39;;;;;;;;;;;;;;;;;;5078690;28;19912;-86
2022/06/19 07:20:25;;;;;;;;;;;;;;;;;;5078248;28;19917;-88
2022/06/19 07:23:12;;;;;;;;;;;;;;;;;;5083021;28;19915;-86
2022/06/19 07:25:58;;;;;;;;;;;;;;;;;;5090197;28;19912;-86
2022/06/19 07:28:45;;;;;;;;;;;;;;;;;;5078825;28;19926;-86
2022/06/19 07:31:32;;;;;;;;;;;;;;;;;;5078128;28;19929;-85
2022/06/19 07:34:18;;;;;;;;;;;;;;;;;;5076339;28;19920;-87
2022/06/19 07:37:05;;;;;;;;;;;;;;;;;;5074744;28;19919;-88
2022/06/19 07:39:51;;;;;;;;;;;;;;;;;;5078526;28;19995;-86
2022/06/19 07:42:38;;;;;;;;;;;;;;;;;;5077740;28;19923;-87
2022/06/19 07:45:24;;;;;;;;;;;;;;;;;;5078699;28;20010;-87
2022/06/19 07:51:16;;;;;;;;;;;;;;;;;;5074235;28;20261;-87
2022/06/19 07:54:03;;;;;;;;;;;;;;;;;;5074460;28;19936;-87
2022/06/19 07:56:49;;;;;;;;;;;;;;;;;;5078291;28;20377;-85
2022/06/19 07:59:36;;;;;;;;;;;;;;;;;;5076192;28;20379;-86
2022/06/19 08:02:24;;;;;;;;;;;;;;;;;;5075054;28;19920;-87
2022/06/19 08:05:12;;;;;;;;;;;;;;;;;;5075842;28;20303;-82
2022/06/19 08:07:58;;;;;;;;;;;;;;;;;;5071982;28;19927;-83
2022/06/19 08:10:45;;;;;;;;;;;;;;;;;;5073463;28;19908;-83
2022/06/19 08:13:31;;;;;;;;;;;;;;;;;;5073674;28;19909;-84
2022/06/19 08:16:18;;;;;;;;;;;;;;;;;;5073020;28;20419;-83
2022/06/19 08:19:04;;;;;;;;;;;;;;;;;;5082132;28;19915;-84
2022/06/19 08:21:51;;;;;;;;;;;;;;;;;;5071335;28;19919;-85
2022/06/19 08:24:37;;;;;;;;;;;;;;;;;;5072945;28;20304;-82
2022/06/19 08:27:24;;;;;;;;;;;;;;;;;;5074469;28;19994;-82
2022/06/19 08:30:10;;;;;;;;;;;;;;;;;;5073673;28;20364;-81
2022/06/19 08:32:57;;;;;;;;;;;;;;;;;;5077847;28;19916;-81
2022/06/19 08:35:43;;;;;;;;;;;;;;;;;;5079199;28;20328;-81
2022/06/19 08:38:30;;;;;;;;;;;;;;;;;;5085448;28;19919;-81
2022/06/19 08:41:16;;;;;;;;;;;;;;;;;;5072014;28;19919;-84
2022/06/19 08:44:04;;;;;;;;;;;;;;;;;;5078944;28;19921;-84
2022/06/19 08:46:50;;;;;;;;;;;;;;;;;;5075137;28;19916;-87
2022/06/19 08:49:37;;;;;;;;;;;;;;;;;;5078635;28;19918;-83
2022/06/19 08:52:23;;;;;;;;;;;;;;;;;;5079081;28;19932;-82
2022/06/19 08:55:10;;;;;;;;;;;;;;;;;;5066697;28;19928;-82
2022/06/19 08:57:56;;;;;;;;;;;;;;;;;;5071673;28;19912;-84
2022/06/19 09:00:45;;;;;;;;;;;;;;;;;;5075428;28;20269;-82
2022/06/19 09:05:36;;;;;;;;;;;;;;;;;;5077576;28;19919;-84
2022/06/19 09:06:37;;;;;;;;;;;;;;;;;;5083928;28;20339;-83
2022/06/19 09:09:24;;;;;;;;;;;;;;;;;;5076294;28;19954;-82
2022/06/19 09:12:10;;;;;;;;;;;;;;;;;;5080681;28;20272;-84
2022/06/19 09:14:57;;;;;;;;;;;;;;;;;;5071327;28;19923;-84
2022/06/19 09:17:43;;;;;;;;;;;;;;;;;;5084694;28;19946;-83
2022/06/19 09:20:30;;;;;;;;;;;;;;;;;;5082517;28;19923;-83
2022/06/19 09:23:16;;;;;;;;;;;;;;;;;;5084408;28;19908;-83
2022/06/19 09:26:03;;;;;;;;;;;;;;;;;;5082816;28;19921;-84
2022/06/19 09:28:50;;;;;;;;;;;;;;;;;;5069424;28;19916;-84
2022/06/19 09:31:36;;;;;;;;;;;;;;;;;;5074272;28;19919;-83
2022/06/19 09:34:23;;;;;;;;;;;;;;;;;;5071400;28;19938;-83
2022/06/19 09:37:09;;;;;;;;;;;;;;;;;;5078025;28;19924;-82
2022/06/19 09:39:56;;;;;;;;;;;;;;;;;;5074891;28;20482;-84
2022/06/19 09:42:43;;;;;;;;;;;;;;;;;;5075715;28;19924;-85
2022/06/19 09:45:29;;;;;;;;;;;;;;;;;;5069377;28;19912;-84
2022/06/19 09:48:16;;;;;;;;;;;;;;;;;;5072668;28;19920;-84
2022/06/19 09:51:02;;;;;;;;;;;;;;;;;;5087556;28;20437;-83
2022/06/19 09:53:49;;;;;;;;;;;;;;;;;;5080697;28;19931;-85
2022/06/19 09:56:35;;;;;;;;;;;;;;;;;;5084300;28;20363;-82
2022/06/19 09:59:22;;;;;;;;;;;;;;;;;;5084069;28;19912;-82
2022/06/19 10:02:08;;;;;;;;;;;;;;;;;;5081688;28;19990;-82
2022/06/19 10:04:54;;;;;;;;;;;;;;;;;;5079896;28;19908;-82
2022/06/19 10:07:41;;;;;;;;;;;;;;;;;;5082584;28;19912;-82
2022/06/19 10:10:27;;;;;;;;;;;;;;;;;;5083950;28;19912;-82
2022/06/19 10:13:14;;;;;;;;;;;;;;;;;;5087637;28;19923;-82
2022/06/19 10:16:00;;;;;;;;;;;;;;;;;;5079975;28;19919;-82
2022/06/19 10:18:47;;;;;;;;;;;;;;;;;;5073549;28;19939;-82
2022/06/19 10:24:39;;;;;;;;;;;;;;;;;;5084698;28;19915;-83
2022/06/19 10:27:25;;;;;;;;;;;;;;;;;;5080285;28;19919;-81
2022/06/19 10:30:12;;;;;;;;;;;;;;;;;;5086084;28;19938;-81
2022/06/19 10:32:58;;;;;;;;;;;;;;;;;;5084336;28;19927;-81
2022/06/19 10:35:45;;;;;;;;;;;;;;;;;;5077854;28;19946;-81
2022/06/19 10:38:31;;;;;;;;;;;;;;;;;;5079850;28;19916;-81
2022/06/19 10:42:00;;;;;;;;;;;;;;;;;;5080858;28;19912;-81
2022/06/19 10:44:24;;;;;;;;;;;;;;;;;;5084837;28;19916;-81
2022/06/19 10:47:10;;;;;;;;;;;;;;;;;;5067948;28;20265;-82
2022/06/19 10:49:57;;;;;;;;;;;;;;;;;;5085625;28;19915;-82
2022/06/19 10:52:43;;;;;;;;;;;;;;;;;;5082304;28;20434;-82
2022/06/19 10:55:30;;;;;;;;;;;;;;;;;;5082503;28;19912;-82
2022/06/19 10:58:16;;;;;;;;;;;;;;;;;;5068980;28;21403;-81
2022/06/19 11:01:03;;;;;;;;;;;;;;;;;;5081813;28;19922;-80
2022/06/19 11:04:07;;;;;;;;;;;;;;;;;;5081175;28;19919;-79
2022/06/19 11:06:54;;;;;;;;;;;;;;;;;;5084505;28;19980;-80
2022/06/19 11:09:40;;;;;;;;;;;;;;;;;;5080951;28;19912;-80
2022/06/19 11:12:27;;;;;;;;;;;;;;;;;;5080343;28;19931;-80
2022/06/19 11:15:14;;;;;;;;;;;;;;;;;;5075953;28;19919;-80
2022/06/19 11:18:00;;;;;;;;;;;;;;;;;;5074885;28;19916;-78
2022/06/19 11:20:46;;;;;;;;;;;;;;;;;;5070548;28;19931;-77
2022/06/19 11:23:34;;;;;;;;;;;;;;;;;;5064103;28;19923;-77
2022/06/19 11:26:21;;;;;;;;;;;;;;;;;;5075867;28;19931;-79
2022/06/19 11:29:07;;;;;;;;;;;;;;;;;;5079916;28;19916;-80
2022/06/19 11:31:54;;;;;;;;;;;;;;;;;;5082179;28;19931;-80
2022/06/19 11:34:43;;;;;;;;;;;;;;;;;;5074939;28;20375;-83
2022/06/19 11:37:30;;;;;;;;;;;;;;;;;;5075958;28;19912;-81
2022/06/19 11:40:17;;;;;;;;;;;;;;;;;;5065117;28;19935;-81
2022/06/19 11:43:05;;;;;;;;;;;;;;;;;;5076226;28;19912;-84
2022/06/19 11:45:51;;;;;;;;;;;;;;;;;;5083616;28;20291;-82
2022/06/19 11:48:37;;;;;;;;;;;;;;;;;;5077912;28;20294;-81
2022/06/19 11:51:24;;;;;;;;;;;;;;;;;;5082227;28;19916;-81
2022/06/19 11:54:10;;;;;;;;;;;;;;;;;;5079215;28;20316;-81
2022/06/19 11:56:57;;;;;;;;;;;;;;;;;;5070402;28;19912;-80
2022/06/19 11:59:47;;;;;;;;;;;;;;;;;;5072024;28;19920;-81
2022/06/19 12:02:33;;;;;;;;;;;;;;;;;;5073579;28;19912;-80
2022/06/19 12:05:19;;;;;;;;;;;;;;;;;;5078553;28;19917;-80
2022/06/19 12:08:06;;;;;;;;;;;;;;;;;;5078796;28;19912;-81
2022/06/19 12:10:52;;;;;;;;;;;;;;;;;;5071267;28;19931;-80
2022/06/19 12:13:39;;;;;;;;;;;;;;;;;;5073277;28;19917;-80
2022/06/19 12:16:25;;;;;;;;;;;;;;;;;;5075067;28;20303;-80
2022/06/19 12:19:12;;;;;;;;;;;;;;;;;;5075703;28;19912;-79
2022/06/19 12:21:58;;;;;;;;;;;;;;;;;;5068846;28;19959;-81
2022/06/19 12:24:45;;;;;;;;;;;;;;;;;;5077698;28;19916;-82
2022/06/19 12:27:31;;;;;;;;;;;;;;;;;;5077028;28;19908;-81
2022/06/19 12:30:18;;;;;;;;;;;;;;;;;;5074587;28;20461;-82
2022/06/19 12:33:05;;;;;;;;;;;;;;;;;;5073286;28;19917;-81
2022/06/19 12:35:51;;;;;;;;;;;;;;;;;;5071419;28;19916;-81
2022/06/19 12:38:37;;;;;;;;;;;;;;;;;;5072733;28;19920;-84
2022/06/19 12:41:26;;;;;;;;;;;;;;;;;;5079865;28;19943;-83
2022/06/19 12:44:12;;;;;;;;;;;;;;;;;;5070199;28;19927;-84
2022/06/19 12:46:59;;;;;;;;;;;;;;;;;;5072790;28;20331;-83
2022/06/19 12:49:45;;;;;;;;;;;;;;;;;;5066720;28;19949;-83
2022/06/19 12:52:32;;;;;;;;;;;;;;;;;;5083279;28;19916;-83
2022/06/19 12:55:18;;;;;;;;;;;;;;;;;;5085500;28;19916;-83
2022/06/19 12:58:05;;;;;;;;;;;;;;;;;;5076089;28;19919;-82
2022/06/19 13:00:51;;;;;;;;;;;;;;;;;;5085077;28;19918;-83
2022/06/19 13:03:38;;;;;;;;;;;;;;;;;;5082181;28;19919;-84
2022/06/19 13:06:24;;;;;;;;;;;;;;;;;;5085239;28;19992;-84
2022/06/19 13:09:11;;;;;;;;;;;;;;;;;;5087710;28;19912;-84
2022/06/19 13:11:57;;;;;;;;;;;;;;;;;;5078982;28;19927;-85
2022/06/19 13:14:44;;;;;;;;;;;;;;;;;;5087655;28;19916;-85
2022/06/19 13:17:30;;;;;;;;;;;;;;;;;;5088689;28;20256;-85
2022/06/19 13:20:17;;;;;;;;;;;;;;;;;;5084116;28;19920;-85
2022/06/19 13:23:03;;;;;;;;;;;;;;;;;;5089708;28;20560;-85
2022/06/19 13:25:50;;;;;;;;;;;;;;;;;;5090699;28;19916;-85
2022/06/19 13:28:36;;;;;;;;;;;;;;;;;;5090722;28;19919;-83
2022/06/19 13:31:23;;;;;;;;;;;;;;;;;;5089493;28;20360;-85
2022/06/19 13:34:09;;;;;;;;;;;;;;;;;;5095193;28;19912;-85
2022/06/19 13:36:56;;;;;;;;;;;;;;;;;;5098176;28;19912;-83
2022/06/19 13:39:42;;;;;;;;;;;;;;;;;;5083843;28;19916;-84
2022/06/19 13:42:29;;;;;;;;;;;;;;;;;;5083570;28;19912;-84
2022/06/19 13:45:15;;;;;;;;;;;;;;;;;;5088501;28;19912;-84
2022/06/19 13:48:02;;;;;;;;;;;;;;;;;;5080603;28;19912;-86
2022/06/19 13:50:48;;;;;;;;;;;;;;;;;;5089391;28;19908;-87
2022/06/19 13:53:35;;;;;;;;;;;;;;;;;;5089083;28;20379;-85
2022/06/19 13:56:21;;;;;;;;;;;;;;;;;;5089540;28;19923;-86
2022/06/19 13:59:08;;;;;;;;;;;;;;;;;;5089327;28;20419;-85
2022/06/19 14:01:56;;;;;;;;;;;;;;;;;;5088452;28;20597;-85
2022/06/19 14:04:46;;;;;;;;;;;;;;;;;;5081634;28;20295;-85
2022/06/19 14:07:32;;;;;;;;;;;;;;;;;;5087574;28;19912;-83
2022/06/19 14:10:19;;;;;;;;;;;;;;;;;;5085888;28;19912;-84
2022/06/19 14:13:05;;;;;;;;;;;;;;;;;;5082889;28;19920;-84
2022/06/19 14:15:52;;;;;;;;;;;;;;;;;;5086430;28;19922;-84
2022/06/19 14:18:38;;;;;;;;;;;;;;;;;;5074834;28;19912;-85
2022/06/19 14:21:25;;;;;;;;;;;;;;;;;;5083716;28;19920;-85
2022/06/19 14:24:11;;;;;;;;;;;;;;;;;;5086173;28;19999;-85
2022/06/19 14:26:58;;;;;;;;;;;;;;;;;;5071343;28;19916;-85
2022/06/19 14:29:44;;;;;;;;;;;;;;;;;;5083517;28;19927;-89
2022/06/19 14:32:31;;;;;;;;;;;;;;;;;;5070434;28;19920;-86
2022/06/19 14:35:20;;;;;;;;;;;;;;;;;;5079651;28;19912;-86
2022/06/19 14:38:06;;;;;;;;;;;;;;;;;;5075163;28;19909;-87
2022/06/19 14:40:53;;;;;;;;;;;;;;;;;;5077295;28;19919;-88
2022/06/19 14:43:39;;;;;;;;;;;;;;;;;;5078065;28;20368;-85
2022/06/19 14:46:26;;;;;;;;;;;;;;;;;;5068830;28;19916;-86
2022/06/19 14:49:16;;;;;;;;;;;;;;;;;;5075469;28;19997;-88
2022/06/19 14:52:02;;;;;;;;;;;;;;;;;;5076827;28;19931;-88
2022/06/19 14:54:49;;;;;;;;;;;;;;;;;;5076584;28;20287;-89
2022/06/19 14:57:35;;;;;;;;;;;;;;;;;;5079741;28;19918;-89
2022/06/19 15:00:22;;;;;;;;;;;;;;;;;;5078292;28;19908;-87
2022/06/19 15:03:08;;;;;;;;;;;;;;;;;;5079564;28;19916;-87
2022/06/19 15:05:55;;;;;;;;;;;;;;;;;;5087336;28;19915;-87
2022/06/19 15:08:41;;;;;;;;;;;;;;;;;;5084860;28;20555;-90
2022/06/19 15:11:28;;;;;;;;;;;;;;;;;;5078711;28;19912;-85
2022/06/19 15:14:14;;;;;;;;;;;;;;;;;;5082329;28;19931;-85
2022/06/19 15:17:01;;;;;;;;;;;;;;;;;;5086733;28;19919;-83
2022/06/19 15:19:47;;;;;;;;;;;;;;;;;;5078708;28;19908;-85
2022/06/19 15:22:34;;;;;;;;;;;;;;;;;;5088515;28;19923;-86
2022/06/19 15:25:21;;;;;;;;;;;;;;;;;;5084850;28;19943;-84
2022/06/19 15:28:07;;;;;;;;;;;;;;;;;;5084861;28;19923;-84
2022/06/19 15:30:54;;;;;;;;;;;;;;;;;;5082175;28;19912;-83
2022/06/19 15:33:40;;;;;;;;;;;;;;;;;;5085637;28;20280;-84
2022/06/19 15:36:27;;;;;;;;;;;;;;;;;;5079558;28;19946;-84
2022/06/19 15:39:14;;;;;;;;;;;;;;;;;;5068875;28;19911;-84
2022/06/19 15:42:00;;;;;;;;;;;;;;;;;;5088410;28;20406;-83
2022/06/19 15:44:47;;;;;;;;;;;;;;;;;;5081311;28;19915;-84
2022/06/19 15:47:33;;;;;;;;;;;;;;;;;;5080847;28;19919;-76
2022/06/19 15:50:19;;;;;;;;;;;;;;;;;;5085937;28;19908;-77
2022/06/19 15:53:06;;;;;;;;;;;;;;;;;;5077846;28;19926;-81
2022/06/19 15:55:52;;;;;;;;;;;;;;;;;;5082442;28;19923;-81
2022/06/19 15:58:39;;;;;;;;;;;;;;;;;;5078560;28;19934;-82
2022/06/19 16:01:26;;;;;;;;;;;;;;;;;;5087111;28;19923;-83
2022/06/19 16:04:12;;;;;;;;;;;;;;;;;;5085438;28;19915;-82
2022/06/19 16:06:59;;;;;;;;;;;;;;;;;;5081395;28;19908;-81
2022/06/19 16:09:45;;;;;;;;;;;;;;;;;;5071254;28;19998;-82
2022/06/19 16:12:32;;;;;;;;;;;;;;;;;;5085253;28;20284;-81
2022/06/19 16:15:19;;;;;;;;;;;;;;;;;;5084180;28;19912;-83
2022/06/19 16:18:08;;;;;;;;;;;;;;;;;;5083530;28;19915;-83
2022/06/19 16:20:54;;;;;;;;;;;;;;;;;;5081370;28;19912;-82
2022/06/19 16:23:41;;;;;;;;;;;;;;;;;;5081394;28;20287;-80
2022/06/19 16:26:27;;;;;;;;;;;;;;;;;;5086048;28;20473;-81
2022/06/19 16:29:14;;;;;;;;;;;;;;;;;;5087138;28;19911;-81
2022/06/19 16:32:00;;;;;;;;;;;;;;;;;;5084048;28;19912;-81
2022/06/19 16:44:02;;;;;;;;;;;;;;;;;;5080381;28;19912;-81
2022/06/19 16:46:49;;;;;;;;;;;;;;;;;;5082812;28;19919;-82
2022/06/19 16:49:35;;;;;;;;;;;;;;;;;;5082543;28;19918;-82
2022/06/19 16:52:22;;;;;;;;;;;;;;;;;;5088067;28;19918;-82
2022/06/19 16:55:08;;;;;;;;;;;;;;;;;;5078466;28;19916;-82
2022/06/19 16:57:55;;;;;;;;;;;;;;;;;;5087231;28;20784;-82
2022/06/19 17:00:42;;;;;;;;;;;;;;;;;;5087357;28;19908;-82
2022/06/19 17:03:29;;;;;;;;;;;;;;;;;;5083967;28;19912;-83
2022/06/19 17:06:15;;;;;;;;;;;;;;;;;;5085169;28;20279;-81
2022/06/19 17:09:01;;;;;;;;;;;;;;;;;;5083155;28;19908;-82
2022/06/19 17:11:48;;;;;;;;;;;;;;;;;;5080317;28;20364;-82
2022/06/19 17:14:34;;;;;;;;;;;;;;;;;;5087787;28;19919;-81
2022/06/19 17:17:21;;;;;;;;;;;;;;;;;;5090057;28;20147;-82
2022/06/19 17:20:07;;;;;;;;;;;;;;;;;;5083792;28;19916;-81
2022/06/19 17:22:54;;;;;;;;;;;;;;;;;;5088660;28;19934;-82
2022/06/19 17:25:40;;;;;;;;;;;;;;;;;;5087390;28;19923;-81
2022/06/19 17:28:27;;;;;;;;;;;;;;;;;;5086012;28;19914;-82
2022/06/19 17:31:16;;;;;;;;;;;;;;;;;;5082088;28;19939;-82
2022/06/19 17:34:02;;;;;;;;;;;;;;;;;;5070255;28;19916;-82
2022/06/19 17:36:49;;;;;;;;;;;;;;;;;;5080575;28;19909;-82
2022/06/19 17:39:35;;;;;;;;;;;;;;;;;;5067020;28;19912;-82
2022/06/19 17:42:22;;;;;;;;;;;;;;;;;;5075997;28;19912;-83
2022/06/19 17:45:08;;;;;;;;;;;;;;;;;;5090017;28;19912;-81
2022/06/19 17:47:54;;;;;;;;;;;;;;;;;;5086711;28;19923;-82
2022/06/19 17:50:41;;;;;;;;;;;;;;;;;;5089179;28;19916;-83
2022/06/19 17:53:27;;;;;;;;;;;;;;;;;;5070746;28;20533;-82
2022/06/19 17:56:14;;;;;;;;;;;;;;;;;;5082273;28;19909;-83
2022/06/19 17:59:00;;;;;;;;;;;;;;;;;;5088553;28;20388;-82
2022/06/19 18:01:47;;;;;;;;;;;;;;;;;;5083844;28;20386;-82
2022/06/19 18:04:33;;;;;;;;;;;;;;;;;;5087071;28;19943;-83
2022/06/19 18:07:20;;;;;;;;;;;;;;;;;;5086839;28;20367;-81
2022/06/19 18:10:06;;;;;;;;;;;;;;;;;;5084944;28;19986;-82
2022/06/19 18:12:53;;;;;;;;;;;;;;;;;;5078891;28;19912;-82
2022/06/19 18:18:48;;;;;;;;;;;;;;;;;;5086815;28;19922;-81
2022/06/19 18:21:34;;;;;;;;;;;;;;;;;;5096629;28;19908;-82
2022/06/19 18:24:21;;;;;;;;;;;;;;;;;;5094170;28;19912;-81
2022/06/19 18:27:10;;;;;;;;;;;;;;;;;;5086265;28;19908;-82
2022/06/19 18:29:59;;;;;;;;;;;;;;;;;;5084072;28;20306;-82
2022/06/19 18:32:46;;;;;;;;;;;;;;;;;;5088190;28;19920;-82
2022/06/19 18:35:32;;;;;;;;;;;;;;;;;;5082561;28;19915;-83
2022/06/19 18:38:19;;;;;;;;;;;;;;;;;;5078774;28;19916;-82
2022/06/19 18:41:05;;;;;;;;;;;;;;;;;;5085989;28;19912;-82
2022/06/19 18:43:52;;;;;;;;;;;;;;;;;;5074987;28;19908;-83
2022/06/19 18:46:39;;;;;;;;;;;;;;;;;;5079441;28;19922;-77
2022/06/19 18:49:25;;;;;;;;;;;;;;;;;;5078091;28;19917;-83
2022/06/19 18:52:12;;;;;;;;;;;;;;;;;;5080612;28;20392;-78
2022/06/19 18:55:00;;;;;;;;;;;;;;;;;;5077256;28;19938;-80
2022/06/19 18:57:47;;;;;;;;;;;;;;;;;;5079919;28;19926;-79
2022/06/19 19:00:34;;;;;;;;;;;;;;;;;;5080042;28;19912;-80
2022/06/19 19:03:20;;;;;;;;;;;;;;;;;;5077643;28;20365;-80
2022/06/19 19:06:07;;;;;;;;;;;;;;;;;;5082318;28;19915;-81
2022/06/19 19:08:53;;;;;;;;;;;;;;;;;;5083208;28;20289;-79
2022/06/19 19:11:40;;;;;;;;;;;;;;;;;;5081905;28;19913;-79
2022/06/19 19:14:26;;;;;;;;;;;;;;;;;;5095395;28;19924;-83
2022/06/19 19:17:13;;;;;;;;;;;;;;;;;;5077137;28;19916;-83
2022/06/19 19:19:59;;;;;;;;;;;;;;;;;;5083704;28;19913;-83